sensor_id;sensor_type;location;lat;lon;timestamp;pressure;altitude;pressure_sealevel;temperature;humidity
79415;BME280;68864;44.972;19.612;2023-08-21T00:01:29;100957.28;;;27.24;57.59
79415;BME280;68864;44.972;19.612;2023-08-21T00:03:56;100962.34;;;27.20;58.17
79415;BME280;68864;44.972;19.612;2023-08-21T00:06:23;100965.69;;;27.18;58.28
79415;BME280;68864;44.972;19.612;2023-08-21T00:08:50;100962.50;;;27.16;58.80
79415;BME280;68864;44.972;19.612;2023-08-21T00:11:16;100962.94;;;27.15;59.09
79415;BME280;68864;44.972;19.612;2023-08-21T00:13:43;100965.47;;;27.13;58.78
79415;BME280;68864;44.972;19.612;2023-08-21T00:16:13;100957.31;;;27.02;58.83
79415;BME280;68864;44.972;19.612;2023-08-21T00:18:41;100966.72;;;27.03;58.96
79415;BME280;68864;44.972;19.612;2023-08-21T00:21:08;100948.13;;;26.85;59.02
79415;BME280;68864;44.972;19.612;2023-08-21T00:23:34;100954.63;;;26.86;58.81
79415;BME280;68864;44.972;19.612;2023-08-21T00:26:01;100964.34;;;26.88;59.54
79415;BME280;68864;44.972;19.612;2023-08-21T00:28:28;100950.13;;;26.76;58.80
79415;BME280;68864;44.972;19.612;2023-08-21T00:31:00;100953.00;;;26.76;59.23
79415;BME280;68864;44.972;19.612;2023-08-21T00:33:28;100967.03;;;26.83;59.35
79415;BME280;68864;44.972;19.612;2023-08-21T00:35:56;100950.28;;;26.72;59.28
79415;BME280;68864;44.972;19.612;2023-08-21T00:38:23;100964.44;;;26.76;59.27
79415;BME280;68864;44.972;19.612;2023-08-21T00:40:50;100972.66;;;26.74;59.76
79415;BME280;68864;44.972;19.612;2023-08-21T00:43:16;100971.38;;;26.66;60.05
79415;BME280;68864;44.972;19.612;2023-08-21T00:45:45;100978.34;;;26.65;60.41
79415;BME280;68864;44.972;19.612;2023-08-21T00:48:13;100971.75;;;26.55;60.47
79415;BME280;68864;44.972;19.612;2023-08-21T00:50:40;100979.97;;;26.53;60.59
79415;BME280;68864;44.972;19.612;2023-08-21T00:53:10;100979.19;;;26.53;60.53
79415;BME280;68864;44.972;19.612;2023-08-21T00:55:37;100971.44;;;26.40;60.93
79415;BME280;68864;44.972;19.612;2023-08-21T00:58:05;100982.63;;;26.47;60.81
79415;BME280;68864;44.972;19.612;2023-08-21T01:00:33;100981.63;;;26.41;61.10
79415;BME280;68864;44.972;19.612;2023-08-21T01:03:00;100970.34;;;26.38;60.97
79415;BME280;68864;44.972;19.612;2023-08-21T01:05:28;100980.63;;;26.35;61.28
79415;BME280;68864;44.972;19.612;2023-08-21T01:07:59;100982.34;;;26.33;62.17
79415;BME280;68864;44.972;19.612;2023-08-21T01:10:36;100979.28;;;26.27;62.62
79415;BME280;68864;44.972;19.612;2023-08-21T01:13:11;100964.88;;;26.18;62.21
79415;BME280;68864;44.972;19.612;2023-08-21T01:15:42;100986.72;;;26.25;61.76
79415;BME280;68864;44.972;19.612;2023-08-21T01:18:09;100986.00;;;26.21;61.87
79415;BME280;68864;44.972;19.612;2023-08-21T01:20:37;100986.94;;;26.18;62.43
79415;BME280;68864;44.972;19.612;2023-08-21T01:23:05;100989.47;;;26.16;62.19
79415;BME280;68864;44.972;19.612;2023-08-21T01:25:33;100991.66;;;26.11;62.02
79415;BME280;68864;44.972;19.612;2023-08-21T01:28:01;100989.03;;;26.04;62.72
79415;BME280;68864;44.972;19.612;2023-08-21T01:30:31;100991.09;;;26.04;62.55
79415;BME280;68864;44.972;19.612;2023-08-21T01:33:00;100990.53;;;25.96;62.94
79415;BME280;68864;44.972;19.612;2023-08-21T01:35:33;100990.19;;;25.94;62.68
79415;BME280;68864;44.972;19.612;2023-08-21T01:38:01;100993.53;;;25.93;62.71
79415;BME280;68864;44.972;19.612;2023-08-21T01:40:28;100985.84;;;25.90;63.38
79415;BME280;68864;44.972;19.612;2023-08-21T01:42:56;100992.72;;;25.67;63.89
79415;BME280;68864;44.972;19.612;2023-08-21T01:45:23;100993.19;;;25.78;63.04
79415;BME280;68864;44.972;19.612;2023-08-21T01:47:50;100991.94;;;25.79;63.06
79415;BME280;68864;44.972;19.612;2023-08-21T01:50:17;100998.41;;;25.80;64.00
79415;BME280;68864;44.972;19.612;2023-08-21T01:52:43;100995.81;;;25.60;64.32
79415;BME280;68864;44.972;19.612;2023-08-21T01:55:10;100999.13;;;25.71;64.14
79415;BME280;68864;44.972;19.612;2023-08-21T01:57:37;100989.31;;;25.72;63.52
79415;BME280;68864;44.972;19.612;2023-08-21T02:00:07;100982.31;;;25.73;64.10
79415;BME280;68864;44.972;19.612;2023-08-21T02:02:34;100986.09;;;25.70;64.14
79415;BME280;68864;44.972;19.612;2023-08-21T02:05:00;100988.38;;;25.50;65.03
79415;BME280;68864;44.972;19.612;2023-08-21T02:07:28;100991.69;;;25.61;63.84
79415;BME280;68864;44.972;19.612;2023-08-21T02:09:54;100984.94;;;25.42;65.04
79415;BME280;68864;44.972;19.612;2023-08-21T02:12:21;100983.69;;;25.56;64.44
79415;BME280;68864;44.972;19.612;2023-08-21T02:14:48;100992.03;;;25.38;65.83
79415;BME280;68864;44.972;19.612;2023-08-21T02:17:16;100986.66;;;25.52;64.17
79415;BME280;68864;44.972;19.612;2023-08-21T02:19:43;100982.53;;;25.53;64.39
79415;BME280;68864;44.972;19.612;2023-08-21T02:22:09;100994.53;;;25.36;65.48
79415;BME280;68864;44.972;19.612;2023-08-21T02:24:36;100993.50;;;25.42;64.84
79415;BME280;68864;44.972;19.612;2023-08-21T02:27:03;100995.53;;;25.42;65.55
79415;BME280;68864;44.972;19.612;2023-08-21T02:29:30;100995.31;;;25.23;66.63
79415;BME280;68864;44.972;19.612;2023-08-21T02:31:57;100999.88;;;25.33;65.20
79415;BME280;68864;44.972;19.612;2023-08-21T02:34:25;101000.22;;;25.36;65.49
79415;BME280;68864;44.972;19.612;2023-08-21T02:36:52;100998.19;;;25.36;66.02
79415;BME280;68864;44.972;19.612;2023-08-21T02:39:19;100996.78;;;25.15;66.95
79415;BME280;68864;44.972;19.612;2023-08-21T02:41:46;100995.66;;;25.25;65.79
79415;BME280;68864;44.972;19.612;2023-08-21T02:44:12;100998.16;;;25.11;66.83
79415;BME280;68864;44.972;19.612;2023-08-21T02:46:39;100992.00;;;25.25;66.60
79415;BME280;68864;44.972;19.612;2023-08-21T02:49:06;100996.34;;;25.29;66.48
79415;BME280;68864;44.972;19.612;2023-08-21T02:51:34;100995.16;;;25.14;67.35
79415;BME280;68864;44.972;19.612;2023-08-21T02:54:01;100998.03;;;25.27;66.25
79415;BME280;68864;44.972;19.612;2023-08-21T02:56:27;100997.78;;;25.09;67.77
79415;BME280;68864;44.972;19.612;2023-08-21T02:58:54;101000.56;;;25.25;66.33
79415;BME280;68864;44.972;19.612;2023-08-21T03:01:20;100999.63;;;25.15;67.09
79415;BME280;68864;44.972;19.612;2023-08-21T03:03:47;101000.44;;;25.28;66.10
79415;BME280;68864;44.972;19.612;2023-08-21T03:06:14;100991.88;;;25.16;67.52
79415;BME280;68864;44.972;19.612;2023-08-21T03:08:43;100995.19;;;25.27;66.89
79415;BME280;68864;44.972;19.612;2023-08-21T03:11:10;101003.19;;;25.32;66.80
79415;BME280;68864;44.972;19.612;2023-08-21T03:13:36;101002.38;;;25.19;67.37
79415;BME280;68864;44.972;19.612;2023-08-21T03:16:03;101000.91;;;25.27;66.61
79415;BME280;68864;44.972;19.612;2023-08-21T03:18:31;101002.63;;;25.24;67.13
79415;BME280;68864;44.972;19.612;2023-08-21T03:20:58;101006.72;;;25.23;67.06
79415;BME280;68864;44.972;19.612;2023-08-21T03:23:25;101006.09;;;25.03;68.46
79415;BME280;68864;44.972;19.612;2023-08-21T03:25:53;101007.75;;;25.17;67.85
79415;BME280;68864;44.972;19.612;2023-08-21T03:28:20;101004.88;;;25.17;67.94
79415;BME280;68864;44.972;19.612;2023-08-21T03:30:46;101004.94;;;25.01;68.46
79415;BME280;68864;44.972;19.612;2023-08-21T03:33:13;101018.00;;;25.14;67.29
79415;BME280;68864;44.972;19.612;2023-08-21T03:35:40;101019.22;;;25.01;68.45
79415;BME280;68864;44.972;19.612;2023-08-21T03:38:06;101013.09;;;25.15;67.69
79415;BME280;68864;44.972;19.612;2023-08-21T03:40:33;101022.53;;;24.99;68.73
79415;BME280;68864;44.972;19.612;2023-08-21T03:43:01;101014.81;;;25.12;67.57
79415;BME280;68864;44.972;19.612;2023-08-21T03:45:28;101017.19;;;25.14;67.74
79415;BME280;68864;44.972;19.612;2023-08-21T03:47:55;101024.91;;;25.01;68.57
79415;BME280;68864;44.972;19.612;2023-08-21T03:50:21;101017.75;;;25.09;67.64
79415;BME280;68864;44.972;19.612;2023-08-21T03:52:48;101021.78;;;25.11;68.04
79415;BME280;68864;44.972;19.612;2023-08-21T03:55:15;101025.94;;;24.94;69.16
79415;BME280;68864;44.972;19.612;2023-08-21T03:57:42;101022.34;;;25.06;68.11
79415;BME280;68864;44.972;19.612;2023-08-21T04:00:10;101028.91;;;24.90;69.24
79415;BME280;68864;44.972;19.612;2023-08-21T04:02:37;101028.03;;;25.06;67.92
79415;BME280;68864;44.972;19.612;2023-08-21T04:05:04;101022.75;;;24.92;69.32
79415;BME280;68864;44.972;19.612;2023-08-21T04:07:31;101026.88;;;25.04;68.12
79415;BME280;68864;44.972;19.612;2023-08-21T04:09:57;101027.38;;;24.86;69.54
79415;BME280;68864;44.972;19.612;2023-08-21T04:12:24;101033.16;;;24.99;68.67
79415;BME280;68864;44.972;19.612;2023-08-21T04:14:51;101026.03;;;24.90;69.90
79415;BME280;68864;44.972;19.612;2023-08-21T04:17:22;101039.09;;;25.04;68.94
79415;BME280;68864;44.972;19.612;2023-08-21T04:19:49;101039.44;;;25.06;68.70
79415;BME280;68864;44.972;19.612;2023-08-21T04:22:15;101040.13;;;25.10;68.48
79415;BME280;68864;44.972;19.612;2023-08-21T04:24:42;101049.72;;;25.16;68.33
79415;BME280;68864;44.972;19.612;2023-08-21T04:27:09;101047.91;;;25.22;68.55
79415;BME280;68864;44.972;19.612;2023-08-21T04:29:36;101050.22;;;25.27;68.43
79415;BME280;68864;44.972;19.612;2023-08-21T04:32:03;101053.28;;;25.33;67.93
79415;BME280;68864;44.972;19.612;2023-08-21T04:34:33;101046.69;;;25.36;68.61
79415;BME280;68864;44.972;19.612;2023-08-21T04:37:00;101051.03;;;25.41;67.77
79415;BME280;68864;44.972;19.612;2023-08-21T04:39:27;101053.78;;;25.44;68.14
79415;BME280;68864;44.972;19.612;2023-08-21T04:41:53;101052.28;;;25.40;68.45
79415;BME280;68864;44.972;19.612;2023-08-21T04:44:20;101063.56;;;25.59;67.10
79415;BME280;68864;44.972;19.612;2023-08-21T04:46:47;101061.56;;;25.56;68.17
79415;BME280;68864;44.972;19.612;2023-08-21T04:49:14;101066.72;;;25.74;67.19
79415;BME280;68864;44.972;19.612;2023-08-21T04:51:42;101062.06;;;25.67;67.89
79415;BME280;68864;44.972;19.612;2023-08-21T04:54:09;101069.16;;;25.88;66.20
79415;BME280;68864;44.972;19.612;2023-08-21T04:56:35;101076.09;;;25.87;67.00
79415;BME280;68864;44.972;19.612;2023-08-21T04:59:02;101067.06;;;26.01;65.65
79415;BME280;68864;44.972;19.612;2023-08-21T05:01:29;101064.69;;;26.13;65.44
79415;BME280;68864;44.972;19.612;2023-08-21T05:03:55;101072.91;;;26.10;66.27
79415;BME280;68864;44.972;19.612;2023-08-21T05:06:22;101063.31;;;26.30;65.64
79415;BME280;68864;44.972;19.612;2023-08-21T05:08:50;101072.31;;;26.41;65.24
79415;BME280;68864;44.972;19.612;2023-08-21T05:11:17;101074.00;;;26.51;64.80
79415;BME280;68864;44.972;19.612;2023-08-21T05:13:44;101076.53;;;26.49;65.56
79415;BME280;68864;44.972;19.612;2023-08-21T05:16:10;101077.94;;;26.66;64.15
79415;BME280;68864;44.972;19.612;2023-08-21T05:18:37;101078.38;;;26.77;64.03
79415;BME280;68864;44.972;19.612;2023-08-21T05:21:04;101079.50;;;26.80;64.37
79415;BME280;68864;44.972;19.612;2023-08-21T05:23:31;101072.38;;;26.97;63.49
79415;BME280;68864;44.972;19.612;2023-08-21T05:25:59;101077.25;;;27.09;63.48
79415;BME280;68864;44.972;19.612;2023-08-21T05:28:25;101070.72;;;27.09;63.18
79415;BME280;68864;44.972;19.612;2023-08-21T05:30:52;101058.75;;;26.88;63.69
79415;BME280;68864;44.972;19.612;2023-08-21T05:33:19;101072.50;;;27.15;63.10
79415;BME280;68864;44.972;19.612;2023-08-21T05:35:45;101076.63;;;27.14;63.38
79415;BME280;68864;44.972;19.612;2023-08-21T05:38:12;101080.56;;;27.29;62.38
79415;BME280;68864;44.972;19.612;2023-08-21T05:40:40;101079.75;;;27.29;62.87
79415;BME280;68864;44.972;19.612;2023-08-21T05:43:08;101078.59;;;27.48;61.73
79415;BME280;68864;44.972;19.612;2023-08-21T05:45:35;101078.09;;;27.62;61.58
79415;BME280;68864;44.972;19.612;2023-08-21T05:48:01;101087.66;;;27.68;61.09
79415;BME280;68864;44.972;19.612;2023-08-21T05:50:28;101087.75;;;27.87;60.90
79415;BME280;68864;44.972;19.612;2023-08-21T05:52:55;101074.88;;;27.91;60.75
79415;BME280;68864;44.972;19.612;2023-08-21T05:55:23;101091.09;;;28.16;60.29
79415;BME280;68864;44.972;19.612;2023-08-21T05:57:50;101081.22;;;28.26;59.76
79415;BME280;68864;44.972;19.612;2023-08-21T06:00:18;101087.75;;;28.27;59.89
79415;BME280;68864;44.972;19.612;2023-08-21T06:02:45;101095.94;;;28.46;59.24
79415;BME280;68864;44.972;19.612;2023-08-21T06:05:12;101093.72;;;28.60;58.97
79415;BME280;68864;44.972;19.612;2023-08-21T06:07:39;101094.72;;;28.75;58.47
79415;BME280;68864;44.972;19.612;2023-08-21T06:10:07;101093.47;;;28.85;58.36
79415;BME280;68864;44.972;19.612;2023-08-21T06:12:37;101085.31;;;29.02;57.51
79415;BME280;68864;44.972;19.612;2023-08-21T06:15:04;101095.38;;;29.15;57.20
79415;BME280;68864;44.972;19.612;2023-08-21T06:17:33;101085.31;;;29.29;56.73
79415;BME280;68864;44.972;19.612;2023-08-21T06:19:59;101088.16;;;29.47;55.84
79415;BME280;68864;44.972;19.612;2023-08-21T06:22:26;101090.81;;;29.69;55.04
79415;BME280;68864;44.972;19.612;2023-08-21T06:24:53;101092.34;;;29.88;54.37
79415;BME280;68864;44.972;19.612;2023-08-21T06:27:20;101097.22;;;30.15;53.71
79415;BME280;68864;44.972;19.612;2023-08-21T06:29:47;101092.00;;;30.61;52.30
79415;BME280;68864;44.972;19.612;2023-08-21T06:32:13;101094.94;;;35.40;40.52
79415;BME280;68864;44.972;19.612;2023-08-21T06:34:41;101095.47;;;39.12;33.20
79415;BME280;68864;44.972;19.612;2023-08-21T06:37:08;101095.91;;;41.56;29.15
79415;BME280;68864;44.972;19.612;2023-08-21T06:39:35;101092.66;;;43.30;26.04
79415;BME280;68864;44.972;19.612;2023-08-21T06:42:02;101097.44;;;44.78;24.32
79415;BME280;68864;44.972;19.612;2023-08-21T06:44:29;101088.81;;;46.09;22.58
79415;BME280;68864;44.972;19.612;2023-08-21T06:46:56;101089.75;;;47.50;20.81
79415;BME280;68864;44.972;19.612;2023-08-21T06:49:23;101085.91;;;48.49;19.27
79415;BME280;68864;44.972;19.612;2023-08-21T06:51:51;101089.66;;;49.26;18.21
79415;BME280;68864;44.972;19.612;2023-08-21T06:54:18;101086.00;;;49.97;17.83
79415;BME280;68864;44.972;19.612;2023-08-21T06:56:44;101083.44;;;50.56;16.35
79415;BME280;68864;44.972;19.612;2023-08-21T06:59:11;101078.75;;;51.40;15.90
79415;BME280;68864;44.972;19.612;2023-08-21T07:01:38;101075.03;;;51.74;16.37
79415;BME280;68864;44.972;19.612;2023-08-21T07:04:05;101080.78;;;52.54;14.76
79415;BME280;68864;44.972;19.612;2023-08-21T07:06:32;101085.28;;;53.03;14.39
79415;BME280;68864;44.972;19.612;2023-08-21T07:09:00;101081.13;;;53.47;14.25
79415;BME280;68864;44.972;19.612;2023-08-21T07:11:27;101083.34;;;53.47;13.92
79415;BME280;68864;44.972;19.612;2023-08-21T07:13:53;101083.88;;;54.23;13.73
79415;BME280;68864;44.972;19.612;2023-08-21T07:16:20;101085.03;;;54.59;13.10
79415;BME280;68864;44.972;19.612;2023-08-21T07:18:47;101084.47;;;55.06;12.56
79415;BME280;68864;44.972;19.612;2023-08-21T07:21:14;101086.88;;;54.80;11.96
79415;BME280;68864;44.972;19.612;2023-08-21T07:23:40;101085.41;;;55.40;11.82
79415;BME280;68864;44.972;19.612;2023-08-21T07:26:09;101074.72;;;55.82;11.41
79415;BME280;68864;44.972;19.612;2023-08-21T07:28:35;101085.31;;;56.01;11.91
79415;BME280;68864;44.972;19.612;2023-08-21T07:31:02;101086.50;;;56.43;11.51
79415;BME280;68864;44.972;19.612;2023-08-21T07:33:29;101086.28;;;56.72;10.52
79415;BME280;68864;44.972;19.612;2023-08-21T07:36:00;101077.03;;;56.84;10.44
79415;BME280;68864;44.972;19.612;2023-08-21T07:38:28;101077.03;;;56.33;10.35
79415;BME280;68864;44.972;19.612;2023-08-21T07:41:02;101070.19;;;56.81;9.83
79415;BME280;68864;44.972;19.612;2023-08-21T07:43:31;101081.31;;;57.69;10.17
79415;BME280;68864;44.972;19.612;2023-08-21T07:46:02;101081.16;;;58.25;8.89
79415;BME280;68864;44.972;19.612;2023-08-21T07:48:29;101076.03;;;58.49;9.21
79415;BME280;68864;44.972;19.612;2023-08-21T07:50:56;101081.00;;;58.21;9.87
79415;BME280;68864;44.972;19.612;2023-08-21T07:53:23;101076.78;;;58.93;9.63
79415;BME280;68864;44.972;19.612;2023-08-21T07:55:50;101074.34;;;58.44;8.92
79415;BME280;68864;44.972;19.612;2023-08-21T07:58:17;101072.53;;;59.00;8.96
79415;BME280;68864;44.972;19.612;2023-08-21T08:00:45;101069.16;;;59.12;9.05
79415;BME280;68864;44.972;19.612;2023-08-21T08:03:13;101070.38;;;59.50;8.30
79415;BME280;68864;44.972;19.612;2023-08-21T08:05:40;101069.72;;;59.54;8.44
79415;BME280;68864;44.972;19.612;2023-08-21T08:08:07;101059.22;;;59.55;9.04
79415;BME280;68864;44.972;19.612;2023-08-21T08:10:37;101065.47;;;59.61;8.46
79415;BME280;68864;44.972;19.612;2023-08-21T08:13:04;101058.84;;;59.92;7.96
79415;BME280;68864;44.972;19.612;2023-08-21T08:15:31;101045.84;;;60.12;8.63
79415;BME280;68864;44.972;19.612;2023-08-21T08:18:01;101050.28;;;59.83;7.68
79415;BME280;68864;44.972;19.612;2023-08-21T08:20:28;101054.53;;;60.53;7.41
79415;BME280;68864;44.972;19.612;2023-08-21T08:22:57;101051.47;;;60.23;7.77
79415;BME280;68864;44.972;19.612;2023-08-21T08:25:24;101046.25;;;60.54;7.52
79415;BME280;68864;44.972;19.612;2023-08-21T08:27:51;101051.34;;;60.47;7.81
79415;BME280;68864;44.972;19.612;2023-08-21T08:30:18;101042.03;;;59.57;8.32
79415;BME280;68864;44.972;19.612;2023-08-21T08:32:46;101018.66;;;55.67;11.58
79415;BME280;68864;44.972;19.612;2023-08-21T08:35:14;101007.28;;;52.45;14.51
79415;BME280;68864;44.972;19.612;2023-08-21T08:37:41;101017.19;;;49.89;16.77
79415;BME280;68864;44.972;19.612;2023-08-21T08:40:09;101019.97;;;48.00;18.58
79415;BME280;68864;44.972;19.612;2023-08-21T08:42:36;101009.69;;;46.40;20.14
79415;BME280;68864;44.972;19.612;2023-08-21T08:45:04;101013.19;;;45.30;21.57
79415;BME280;68864;44.972;19.612;2023-08-21T08:47:32;101026.53;;;44.43;22.31
79415;BME280;68864;44.972;19.612;2023-08-21T08:50:01;101015.22;;;43.71;23.41
79415;BME280;68864;44.972;19.612;2023-08-21T08:52:31;101006.13;;;43.16;23.91
79415;BME280;68864;44.972;19.612;2023-08-21T08:55:01;101011.25;;;42.72;24.08
79415;BME280;68864;44.972;19.612;2023-08-21T08:57:28;101008.47;;;42.30;24.01
79415;BME280;68864;44.972;19.612;2023-08-21T08:59:55;101005.91;;;41.98;25.19
79415;BME280;68864;44.972;19.612;2023-08-21T09:02:24;101003.53;;;41.69;25.69
79415;BME280;68864;44.972;19.612;2023-08-21T09:04:51;101010.63;;;41.39;25.53
79415;BME280;68864;44.972;19.612;2023-08-21T09:07:17;101001.06;;;41.05;25.63
79415;BME280;68864;44.972;19.612;2023-08-21T09:09:48;101000.78;;;40.95;25.30
79415;BME280;68864;44.972;19.612;2023-08-21T09:12:16;101003.63;;;40.87;25.00
79415;BME280;68864;44.972;19.612;2023-08-21T09:14:44;101009.06;;;40.70;25.41
79415;BME280;68864;44.972;19.612;2023-08-21T09:17:12;101012.34;;;40.54;24.72
79415;BME280;68864;44.972;19.612;2023-08-21T09:19:39;101002.91;;;40.34;24.03
79415;BME280;68864;44.972;19.612;2023-08-21T09:22:08;101001.09;;;40.18;23.07
79415;BME280;68864;44.972;19.612;2023-08-21T09:24:35;101008.00;;;39.76;24.08
79415;BME280;68864;44.972;19.612;2023-08-21T09:27:04;101004.22;;;39.49;25.49
79415;BME280;68864;44.972;19.612;2023-08-21T09:29:38;101001.88;;;39.47;26.67
79415;BME280;68864;44.972;19.612;2023-08-21T09:32:05;100998.94;;;39.47;26.81
79415;BME280;68864;44.972;19.612;2023-08-21T09:34:36;101001.88;;;39.47;25.94
79415;BME280;68864;44.972;19.612;2023-08-21T09:37:05;101006.03;;;39.52;26.42
79415;BME280;68864;44.972;19.612;2023-08-21T09:39:33;100998.50;;;39.56;27.49
79415;BME280;68864;44.972;19.612;2023-08-21T09:42:01;100992.25;;;39.33;26.64
79415;BME280;68864;44.972;19.612;2023-08-21T09:44:35;101000.69;;;39.37;27.31
79415;BME280;68864;44.972;19.612;2023-08-21T09:47:02;100997.13;;;39.44;26.99
79415;BME280;68864;44.972;19.612;2023-08-21T09:49:29;100993.66;;;39.46;27.56
79415;BME280;68864;44.972;19.612;2023-08-21T09:51:57;100988.28;;;39.50;26.94
79415;BME280;68864;44.972;19.612;2023-08-21T09:54:25;100981.78;;;39.57;27.60
79415;BME280;68864;44.972;19.612;2023-08-21T09:56:51;100985.84;;;39.54;26.08
79415;BME280;68864;44.972;19.612;2023-08-21T09:59:18;100986.91;;;39.38;27.14
79415;BME280;68864;44.972;19.612;2023-08-21T10:01:49;100991.88;;;39.43;28.03
79415;BME280;68864;44.972;19.612;2023-08-21T10:04:17;100981.75;;;39.44;27.65
79415;BME280;68864;44.972;19.612;2023-08-21T10:06:46;100988.84;;;39.48;27.72
79415;BME280;68864;44.972;19.612;2023-08-21T10:09:14;100979.75;;;39.52;27.78
79415;BME280;68864;44.972;19.612;2023-08-21T10:11:42;100981.34;;;39.53;27.83
79415;BME280;68864;44.972;19.612;2023-08-21T10:14:10;100977.28;;;39.43;27.04
79415;BME280;68864;44.972;19.612;2023-08-21T10:16:37;100975.84;;;39.30;27.46
79415;BME280;68864;44.972;19.612;2023-08-21T10:19:05;100973.22;;;39.14;28.07
79415;BME280;68864;44.972;19.612;2023-08-21T10:21:35;100970.66;;;39.23;28.72
79415;BME280;68864;44.972;19.612;2023-08-21T10:24:03;100967.75;;;39.23;28.33
79415;BME280;68864;44.972;19.612;2023-08-21T10:26:30;100966.22;;;39.36;28.78
79415;BME280;68864;44.972;19.612;2023-08-21T10:28:59;100965.72;;;39.50;28.42
79415;BME280;68864;44.972;19.612;2023-08-21T10:31:33;100954.97;;;39.58;27.99
79415;BME280;68864;44.972;19.612;2023-08-21T10:34:02;100960.00;;;39.58;27.75
79415;BME280;68864;44.972;19.612;2023-08-21T10:39:23;100952.03;;;39.58;27.02
79415;BME280;68864;44.972;19.612;2023-08-21T10:41:53;100959.34;;;39.52;26.66
79415;BME280;68864;44.972;19.612;2023-08-21T10:44:37;100954.63;;;39.49;27.69
79415;BME280;68864;44.972;19.612;2023-08-21T10:47:15;100950.13;;;39.48;27.98
79415;BME280;68864;44.972;19.612;2023-08-21T10:49:43;100948.22;;;39.50;27.78
79415;BME280;68864;44.972;19.612;2023-08-21T10:52:11;100944.75;;;39.65;27.32
79415;BME280;68864;44.972;19.612;2023-08-21T10:54:46;100953.22;;;39.37;26.93
79415;BME280;68864;44.972;19.612;2023-08-21T10:57:13;100948.91;;;39.24;28.33
79415;BME280;68864;44.972;19.612;2023-08-21T10:59:49;100940.66;;;39.10;27.31
79415;BME280;68864;44.972;19.612;2023-08-21T11:02:16;100937.44;;;39.13;27.83
79415;BME280;68864;44.972;19.612;2023-08-21T11:04:43;100934.06;;;39.09;27.19
79415;BME280;68864;44.972;19.612;2023-08-21T11:07:12;100940.00;;;39.17;27.53
79415;BME280;68864;44.972;19.612;2023-08-21T11:09:39;100928.66;;;39.00;28.07
79415;BME280;68864;44.972;19.612;2023-08-21T11:12:08;100936.69;;;38.75;27.61
79415;BME280;68864;44.972;19.612;2023-08-21T11:14:35;100926.63;;;38.58;27.95
79415;BME280;68864;44.972;19.612;2023-08-21T11:17:02;100923.22;;;38.72;27.28
79415;BME280;68864;44.972;19.612;2023-08-21T11:19:30;100926.75;;;38.84;27.41
79415;BME280;68864;44.972;19.612;2023-08-21T11:21:57;100925.69;;;38.68;27.90
79415;BME280;68864;44.972;19.612;2023-08-21T11:24:31;100931.97;;;38.53;27.54
79415;BME280;68864;44.972;19.612;2023-08-21T11:26:58;100922.00;;;38.43;27.79
79415;BME280;68864;44.972;19.612;2023-08-21T11:29:25;100921.56;;;38.58;27.77
79415;BME280;68864;44.972;19.612;2023-08-21T11:31:52;100910.47;;;38.75;27.56
79415;BME280;68864;44.972;19.612;2023-08-21T11:34:20;100906.28;;;38.71;27.69
79415;BME280;68864;44.972;19.612;2023-08-21T11:36:47;100902.03;;;38.72;28.05
79415;BME280;68864;44.972;19.612;2023-08-21T11:39:14;100885.97;;;38.65;27.52
79415;BME280;68864;44.972;19.612;2023-08-21T11:41:55;100902.66;;;38.27;27.85
79415;BME280;68864;44.972;19.612;2023-08-21T11:44:23;100901.88;;;38.27;28.39
79415;BME280;68864;44.972;19.612;2023-08-21T11:46:51;100903.19;;;38.07;28.09
79415;BME280;68864;44.972;19.612;2023-08-21T11:49:19;100915.00;;;37.90;28.22
79415;BME280;68864;44.972;19.612;2023-08-21T11:51:48;100916.00;;;37.74;27.90
79415;BME280;68864;44.972;19.612;2023-08-21T11:54:17;100906.47;;;37.73;27.53
79415;BME280;68864;44.972;19.612;2023-08-21T11:56:44;100909.38;;;37.73;28.45
79415;BME280;68864;44.972;19.612;2023-08-21T11:59:21;100909.63;;;37.75;27.79
79415;BME280;68864;44.972;19.612;2023-08-21T12:01:50;100906.16;;;37.77;27.96
79415;BME280;68864;44.972;19.612;2023-08-21T12:04:17;100915.94;;;37.79;28.02
79415;BME280;68864;44.972;19.612;2023-08-21T12:06:44;100905.06;;;37.80;27.97
79415;BME280;68864;44.972;19.612;2023-08-21T12:09:11;100905.06;;;37.80;28.19
79415;BME280;68864;44.972;19.612;2023-08-21T12:11:37;100897.22;;;37.75;28.58
79415;BME280;68864;44.972;19.612;2023-08-21T12:14:04;100897.44;;;37.77;27.86
79415;BME280;68864;44.972;19.612;2023-08-21T12:16:33;100902.59;;;37.90;28.11
79415;BME280;68864;44.972;19.612;2023-08-21T12:19:00;100903.13;;;37.88;27.66
79415;BME280;68864;44.972;19.612;2023-08-21T12:21:29;100898.28;;;37.72;27.82
79415;BME280;68864;44.972;19.612;2023-08-21T12:23:56;100897.13;;;37.56;27.07
79415;BME280;68864;44.972;19.612;2023-08-21T12:26:23;100898.75;;;37.52;27.75
79415;BME280;68864;44.972;19.612;2023-08-21T12:28:50;100894.97;;;37.32;27.92
79415;BME280;68864;44.972;19.612;2023-08-21T12:31:17;100900.38;;;37.17;27.84
79415;BME280;68864;44.972;19.612;2023-08-21T12:33:45;100884.25;;;36.86;27.98
79415;BME280;68864;44.972;19.612;2023-08-21T12:36:12;100893.56;;;36.79;27.96
79415;BME280;68864;44.972;19.612;2023-08-21T12:38:39;100882.03;;;36.68;28.13
79415;BME280;68864;44.972;19.612;2023-08-21T12:41:06;100879.38;;;36.65;28.25
79415;BME280;68864;44.972;19.612;2023-08-21T12:43:32;100877.34;;;36.54;28.72
79415;BME280;68864;44.972;19.612;2023-08-21T12:45:59;100876.31;;;36.46;28.50